الصفحة الرئيسية
METAR-TAF:

METAR-TAF

مطار :

Rarotonga, جزر كوك

دائرة عرض: 21-12S, خط طول: 159-49W, ارتفاع: 7 متر

مراقبة الطقس الحالي

تاريخ ووقت الإصدار 31 دقيقة قبل الساعة 01:00UTC
ريح 6 عقدة من الجنوب الشرقي, الاتجاه يتراوح بين الشرق و الجنوب/الجنوب الغربي
درجة الحرارة 22°درجة مئوية
الرطوبة 60%
ضغط 1018 hPa
الرؤية 10 كم أو أكثر

METAR: NCRG 250100Z AUTO 14006KT 090V210 9999 SCT036/// SCT045/// 22/14 Q1018

زمن: 15:31 (01:31 UTC)

توقعات

تاريخ ووقت الإصدار 2ساعات و 26 دقيقة قبل الساعة 23:05UTC
التوقعات صالحة من25 الساعة 00 UTC إلى 25 الساعة 24 UTC
ريح 12 عقدة من الجنوب الشرقي
الرؤية 10 كم أو أكثر
غيوم قليلة على ارتفاع 3000 قدم
غيوم متفرقة على ارتفاع 4000 قدم

TAF: NCRG 242305Z 2500/2524 14012KT 9999 FEW030 SCT040

أرصاد الطقس والتوقعات من أكثر من 4000 مطار (تقارير الطقس للمطار METAR والتنبؤ بالطقس بالمطارTAF).

المحطات المتاحة هي النقط الصفراء والحمراء على الخريطة.

حرك المؤشر فوق النقطة لمعرفة اسم المحطة.

ثم انقر لمعرفة أرصاد وتوقعات الطقس.

لتغيير الخارطة: اضغط على الأزرار الخضراء مع رمز الصليب الأسود للتكبير. على الزر الأخضر مع شرطة للتصغير، أو على الأسهم الخضراء للخرائط المجاورة.


METAR-TAF: